Time;durP1;ratioP1;P1;durP2;ratioP2;P2;SDS_P1;SDS_P2;PMS_P1;PMS_P2;Temp;Humidity;BMP_temperature;BMP_pressure;BME280_temperature;BME280_humidity;BME280_pressure;Samples;Min_cycle;Max_cycle;Signal;HPM_P1;HPM_P2
2021/12/31 00:02:10;;;;;;;7.03;2.30;;;;;;;12.43;98.62;101739.53;4843454;29;20033;-71
2021/12/31 00:04:36;;;;;;;6.20;2.50;;;;;;;12.46;98.45;101742.91;4842626;29;20034;-72
2021/12/31 00:07:01;;;;;;;9.57;2.70;;;;;;;12.50;98.73;101742.81;4842961;29;20054;-72
2021/12/31 00:09:27;;;;;;;7.35;2.40;;;;;;;12.52;98.97;101732.97;4842489;29;20105;-73
2021/12/31 00:11:53;;;;;;;8.38;2.63;;;;;;;12.53;98.95;101747.97;4843147;29;20038;-71
2021/12/31 00:14:20;;;;;;;8.18;2.80;;;;;;;12.52;99.34;101732.97;4843179;29;20562;-73
2021/12/31 00:16:46;;;;;;;12.35;3.30;;;;;;;12.51;99.54;101744.53;4842510;29;20026;-73
2021/12/31 00:19:13;;;;;;;10.10;3.28;;;;;;;12.55;99.36;101733.72;4828072;29;20038;-72
2021/12/31 00:21:39;;;;;;;11.55;3.30;;;;;;;12.54;99.72;101731.13;4841974;29;20460;-72
2021/12/31 00:24:04;;;;;;;8.25;2.88;;;;;;;12.58;99.69;101728.28;4843175;29;20083;-73
2021/12/31 00:26:30;;;;;;;8.52;3.03;;;;;;;12.56;99.80;101732.78;4842592;29;20038;-72
2021/12/31 00:28:55;;;;;;;12.20;3.35;;;;;;;12.56;99.75;101735.44;4842808;29;20106;-72
2021/12/31 00:31:20;;;;;;;8.25;3.45;;;;;;;12.56;99.66;101732.78;4842708;29;20494;-72
2021/12/31 00:33:46;;;;;;;10.23;3.63;;;;;;;12.57;99.78;101723.00;4842945;29;20112;-73
2021/12/31 00:36:11;;;;;;;9.55;3.78;;;;;;;12.58;99.78;101728.28;4842575;29;20060;-71
2021/12/31 00:38:36;;;;;;;8.10;3.30;;;;;;;12.57;99.80;101731.88;4842717;29;20075;-72
2021/12/31 00:41:02;;;;;;;10.20;3.47;;;;;;;12.61;99.77;101729.97;4842391;29;20112;-73
2021/12/31 00:43:27;;;;;;;8.77;3.40;;;;;;;12.58;100.00;101735.38;4842712;29;20036;-73
2021/12/31 00:45:52;;;;;;;9.95;3.45;;;;;;;12.60;100.00;101741.50;4842780;29;20029;-72
2021/12/31 00:48:18;;;;;;;9.07;4.03;;;;;;;12.62;100.00;101739.66;4842350;29;20069;-73
2021/12/31 00:50:43;;;;;;;10.65;3.42;;;;;;;12.59;100.00;101743.28;4842255;29;20370;-73
2021/12/31 00:53:09;;;;;;;7.80;3.90;;;;;;;12.61;100.00;101740.59;4842057;29;20040;-72
2021/12/31 00:55:34;;;;;;;8.35;3.35;;;;;;;12.59;100.00;101743.28;4842554;29;20033;-73
2021/12/31 00:58:00;;;;;;;9.70;3.40;;;;;;;12.59;100.00;101739.78;4842474;29;20030;-70
2021/12/31 01:00:26;;;;;;;9.43;3.72;;;;;;;12.57;100.00;101733.66;4842315;29;20444;-73
2021/12/31 01:02:51;;;;;;;7.47;3.28;;;;;;;12.60;100.00;101744.19;4842048;29;20544;-71
2021/12/31 01:05:17;;;;;;;6.45;3.50;;;;;;;12.59;100.00;101742.44;4842435;29;20555;-72
2021/12/31 01:07:42;;;;;;;8.80;3.75;;;;;;;12.54;100.00;101734.63;4842425;29;20069;-73
2021/12/31 01:10:12;;;;;;;7.78;3.40;;;;;;;12.52;100.00;101741.81;4841355;29;20479;-73
2021/12/31 01:12:37;;;;;;;9.70;3.63;;;;;;;12.52;100.00;101744.47;4842459;29;20038;-73
2021/12/31 01:15:07;;;;;;;7.20;3.40;;;;;;;12.55;100.00;101747.00;4842216;29;20089;-72
2021/12/31 01:20:03;;;;;;;7.65;3.50;;;;;;;12.51;100.00;101733.91;4842050;29;20049;-73
2021/12/31 01:22:31;;;;;;;10.30;3.38;;;;;;;12.53;100.00;101730.28;4841583;29;20053;-72
2021/12/31 01:24:57;;;;;;;9.75;3.38;;;;;;;12.54;100.00;101737.28;4841681;29;20094;-72
2021/12/31 01:27:22;;;;;;;9.30;3.25;;;;;;;12.55;100.00;101741.69;4841893;29;20043;-71
2021/12/31 01:29:48;;;;;;;8.10;3.35;;;;;;;12.55;100.00;101744.34;4841310;29;20030;-72
2021/12/31 01:32:13;;;;;;;7.22;3.10;;;;;;;12.57;100.00;101744.28;4841811;29;20038;-72
2021/12/31 01:34:39;;;;;;;9.50;3.30;;;;;;;12.58;100.00;101749.56;4841683;29;20044;-73
2021/12/31 01:37:06;;;;;;;9.95;3.40;;;;;;;12.61;100.00;101745.91;4841812;29;20026;-72
2021/12/31 01:39:31;;;;;;;7.55;3.38;;;;;;;12.67;100.00;101758.06;4841556;29;20053;-73
2021/12/31 01:41:58;;;;;;;8.57;2.97;;;;;;;12.69;99.82;101746.47;4843040;29;20479;-73
2021/12/31 01:44:33;;;;;;;7.57;3.10;;;;;;;12.75;99.33;101748.03;4845333;29;20041;-72
2021/12/31 01:47:03;;;;;;;6.25;2.80;;;;;;;12.75;99.10;101745.38;4845737;29;20033;-73
2021/12/31 01:49:34;;;;;;;8.52;2.90;;;;;;;12.72;99.43;101756.09;4845188;29;20034;-72
2021/12/31 01:52:01;;;;;;;6.60;2.72;;;;;;;12.72;99.26;101754.31;4844713;29;20057;-72
2021/12/31 01:54:31;;;;;;;9.02;3.05;;;;;;;12.68;99.57;101744.72;4845130;29;20062;-73
2021/12/31 01:57:00;;;;;;;8.45;2.83;;;;;;;12.70;99.53;101731.38;4845083;29;20113;-71
2021/12/31 01:59:26;;;;;;;10.50;3.40;;;;;;;12.73;99.32;101742.75;4844856;29;20550;-73
2021/12/31 02:01:54;;;;;;;7.82;2.67;;;;;;;12.76;99.08;101745.31;4845010;29;20034;-73
2021/12/31 02:04:19;;;;;;;7.32;3.17;;;;;;;12.75;98.90;101750.69;4845146;29;20030;-73
2021/12/31 02:06:45;;;;;;;5.78;2.83;;;;;;;12.70;99.28;101729.59;4844782;29;20038;-72
2021/12/31 02:09:12;;;;;;;8.48;2.92;;;;;;;12.69;99.50;101738.50;4844623;29;20479;-73
2021/12/31 02:11:37;;;;;;;7.38;3.00;;;;;;;12.69;99.25;101730.53;4844372;29;20037;-72
2021/12/31 02:14:04;;;;;;;6.70;2.58;;;;;;;12.71;99.27;101741.09;4844778;29;20030;-73
2021/12/31 02:16:31;;;;;;;6.97;2.63;;;;;;;12.71;99.06;101741.09;4844927;29;20436;-73
2021/12/31 02:18:57;;;;;;;8.40;2.78;;;;;;;12.71;99.14;101749.06;4844864;29;20602;-72
2021/12/31 02:21:22;;;;;;;8.88;2.67;;;;;;;12.73;98.84;101741.91;4844712;29;20042;-72
2021/12/31 02:23:52;;;;;;;9.45;3.58;;;;;;;12.70;99.12;101734.91;4844471;29;20493;-72
2021/12/31 02:26:17;;;;;;;9.18;2.80;;;;;;;12.70;98.90;101742.00;4844074;29;20415;-73
2021/12/31 02:28:43;;;;;;;7.25;2.92;;;;;;;12.73;98.71;101741.91;4844722;29;20026;-73
2021/12/31 02:31:08;;;;;;;6.93;2.60;;;;;;;12.75;98.41;101734.75;4844980;29;20034;-73
2021/12/31 02:33:34;;;;;;;7.13;2.60;;;;;;;12.76;98.31;101740.00;4844543;29;20026;-72
2021/12/31 02:36:05;;;;;;;6.53;2.65;;;;;;;12.72;98.56;101749.00;4845044;29;20022;-72
2021/12/31 02:38:30;;;;;;;6.13;2.60;;;;;;;12.73;98.52;101734.78;4844452;29;20038;-73
2021/12/31 02:40:56;;;;;;;6.82;2.70;;;;;;;12.74;98.43;101738.31;4845100;29;20079;-72
2021/12/31 02:43:21;;;;;;;8.60;2.75;;;;;;;12.73;98.38;101737.44;4844525;29;20045;-73
2021/12/31 02:45:47;;;;;;;7.28;2.70;;;;;;;12.78;98.12;101737.25;4844418;29;20038;-73
2021/12/31 02:48:13;;;;;;;5.43;2.50;;;;;;;12.82;98.01;101727.38;4844385;29;20026;-72
2021/12/31 02:50:41;;;;;;;8.32;2.83;;;;;;;12.79;97.82;101742.50;4844708;29;20030;-73
2021/12/31 02:53:12;;;;;;;7.57;2.67;;;;;;;12.80;97.87;101740.75;4844228;29;20113;-73
2021/12/31 02:55:40;;;;;;;7.75;2.80;;;;;;;12.78;98.07;101737.25;4844349;29;20130;-73
2021/12/31 02:58:06;;;;;;;8.38;2.70;;;;;;;12.76;97.97;101733.78;4843805;29;20106;-72
2021/12/31 03:00:34;;;;;;;7.72;2.80;;;;;;;12.76;97.90;101729.34;4844825;29;20034;-72
2021/12/31 03:03:00;;;;;;;6.95;2.80;;;;;;;12.82;98.08;101746.00;4844662;29;20105;-72
2021/12/31 03:05:29;;;;;;;8.05;3.38;;;;;;;12.77;97.90;101739.06;4843917;29;20130;-73
2021/12/31 03:07:56;;;;;;;5.65;2.63;;;;;;;12.78;97.72;101738.13;4843837;29;20046;-72
2021/12/31 03:10:22;;;;;;;7.25;2.90;;;;;;;12.78;97.55;101727.50;4843521;29;20038;-72
2021/12/31 03:12:50;;;;;;;8.02;2.90;;;;;;;12.78;97.65;101716.00;4843719;29;20057;-72
2021/12/31 03:15:17;;;;;;;8.25;3.00;;;;;;;12.77;97.62;101709.84;4844177;29;20034;-72
2021/12/31 03:17:43;;;;;;;9.10;2.70;;;;;;;12.77;97.56;101715.16;4843822;29;20026;-73
2021/12/31 03:20:12;;;;;;;7.03;2.65;;;;;;;12.77;97.66;101691.22;4843615;29;20045;-70
2021/12/31 03:22:39;;;;;;;6.97;2.67;;;;;;;12.82;97.34;101695.47;4843855;29;20038;-72
2021/12/31 03:25:05;;;;;;;7.18;2.55;;;;;;;12.83;97.24;101702.53;4844245;29;20030;-70
2021/12/31 03:27:32;;;;;;;8.50;2.90;;;;;;;12.84;97.09;101713.09;4841430;29;20495;-72
2021/12/31 03:29:57;;;;;;;6.07;2.50;;;;;;;12.82;96.86;101708.78;4843254;29;20034;-72
2021/12/31 03:32:22;;;;;;;7.68;2.40;;;;;;;12.84;96.80;101701.59;4843949;29;20030;-72
2021/12/31 03:34:48;;;;;;;7.35;2.50;;;;;;;12.79;96.76;101696.47;4843624;29;20108;-73
2021/12/31 03:37:13;;;;;;;8.55;2.42;;;;;;;12.82;96.51;101712.28;4843210;29;20388;-71
2021/12/31 03:39:38;;;;;;;6.25;2.42;;;;;;;12.83;96.17;101715.81;4843588;29;20379;-71
2021/12/31 03:42:03;;;;;;;6.00;2.20;;;;;;;12.83;95.86;101714.03;4843611;29;20038;-72
2021/12/31 03:44:29;;;;;;;7.50;2.40;;;;;;;12.85;95.80;101711.28;4843386;29;20033;-71
2021/12/31 03:46:54;;;;;;;7.90;2.60;;;;;;;12.83;95.70;101710.50;4843459;29;20554;-72
2021/12/31 03:49:19;;;;;;;5.97;2.20;;;;;;;12.84;95.58;101702.47;4843024;29;20120;-72
2021/12/31 03:51:45;;;;;;;8.30;2.70;;;;;;;12.86;95.30;101710.38;4842981;29;20045;-72
2021/12/31 03:54:10;;;;;;;4.63;2.40;;;;;;;12.85;95.54;101712.19;4843344;29;20493;-72
2021/12/31 03:56:35;;;;;;;9.85;2.47;;;;;;;12.86;95.26;101715.69;4843626;29;20099;-72
2021/12/31 03:59:01;;;;;;;7.13;2.40;;;;;;;12.85;95.49;101722.81;4842750;29;20018;-71
2021/12/31 04:01:27;;;;;;;8.98;2.42;;;;;;;12.87;94.99;101715.63;4842846;29;20045;-71
2021/12/31 04:03:53;;;;;;;6.05;2.50;;;;;;;12.83;95.08;101714.03;4842351;29;20046;-72
2021/12/31 04:06:21;;;;;;;9.13;2.55;;;;;;;12.82;95.30;101708.78;4842809;29;20117;-72
2021/12/31 04:08:46;;;;;;;8.05;2.53;;;;;;;12.83;94.83;101707.84;4843187;29;20078;-72
2021/12/31 04:11:13;;;;;;;4.63;2.30;;;;;;;12.87;94.56;101718.28;4842587;29;20133;-72
2021/12/31 04:13:39;;;;;;;5.82;2.40;;;;;;;12.87;94.23;101714.78;4843508;29;20034;-72
2021/12/31 04:16:04;;;;;;;5.68;2.20;;;;;;;12.88;94.07;101720.03;4842616;29;20094;-72
2021/12/31 04:18:30;;;;;;;7.00;2.40;;;;;;;12.88;94.08;101701.41;4842786;29;20026;-71
2021/12/31 04:20:57;;;;;;;6.30;2.30;;;;;;;12.88;93.79;101714.69;4842623;29;20506;-72
2021/12/31 04:23:31;;;;;;;7.35;2.30;;;;;;;12.86;94.14;101705.06;4842726;29;20109;-72
2021/12/31 04:25:58;;;;;;;6.72;2.67;;;;;;;12.87;93.62;101701.47;4842953;29;20106;-72
2021/12/31 04:28:24;;;;;;;7.80;2.38;;;;;;;12.87;93.59;101689.03;4843092;29;20037;-72
2021/12/31 04:30:49;;;;;;;5.00;2.20;;;;;;;12.87;93.31;101681.06;4841986;29;20053;-72
2021/12/31 04:33:14;;;;;;;6.13;2.05;;;;;;;12.84;93.45;101686.53;4842008;29;20476;-71
2021/12/31 04:35:40;;;;;;;5.25;2.20;;;;;;;12.77;93.74;101685.91;4842632;29;20025;-72
2021/12/31 04:38:05;;;;;;;6.88;2.40;;;;;;;12.70;94.01;101683.53;4842285;29;20085;-72
2021/12/31 04:40:30;;;;;;;5.97;2.58;;;;;;;12.64;93.99;101652.78;4842144;29;20040;-71
2021/12/31 04:42:56;;;;;;;6.35;1.83;;;;;;;12.60;93.94;101688.38;4841797;29;20154;-73
2021/12/31 04:45:21;;;;;;;5.50;2.10;;;;;;;12.52;94.35;101679.81;4841998;29;20045;-72
2021/12/31 04:47:47;;;;;;;6.70;2.22;;;;;;;12.49;94.45;101669.34;4842474;29;20030;-72
2021/12/31 04:50:13;;;;;;;5.47;2.53;;;;;;;12.45;94.69;101666.81;4842516;29;20034;-71
2021/12/31 04:52:39;;;;;;;5.28;2.10;;;;;;;12.46;94.18;101659.69;4841543;29;20044;-71
2021/12/31 04:55:05;;;;;;;10.07;2.60;;;;;;;12.48;94.10;101627.75;4842324;29;20030;-73
2021/12/31 04:57:31;;;;;;;4.45;2.00;;;;;;;12.49;94.00;101648.94;4842386;29;20037;-73
2021/12/31 04:59:56;;;;;;;5.38;2.10;;;;;;;12.48;93.62;101625.09;4842451;29;20038;-74
2021/12/31 05:02:21;;;;;;;6.90;2.22;;;;;;;12.48;93.38;101644.56;4841806;29;20030;-73
2021/12/31 05:04:47;;;;;;;6.13;1.98;;;;;;;12.44;93.54;101638.50;4841845;29;20499;-73
2021/12/31 05:07:12;;;;;;;5.82;2.05;;;;;;;12.45;93.19;101642.03;4842318;29;20054;-73
2021/12/31 05:09:37;;;;;;;4.93;2.00;;;;;;;12.48;92.98;101644.56;4841851;29;20475;-72
2021/12/31 05:12:05;;;;;;;14.88;2.58;;;;;;;12.43;93.36;101628.81;4842172;29;20041;-72
2021/12/31 05:14:30;;;;;;;6.03;2.10;;;;;;;12.41;93.46;101645.72;4841194;29;20034;-72
2021/12/31 05:16:56;;;;;;;4.82;1.98;;;;;;;12.38;93.70;101652.03;4842010;29;20531;-73
2021/12/31 05:19:21;;;;;;;3.97;2.03;;;;;;;12.39;93.49;101659.09;4842253;29;20032;-72
2021/12/31 05:21:47;;;;;;;6.38;2.20;;;;;;;12.38;93.52;101669.75;4841952;29;20512;-72
2021/12/31 05:24:14;;;;;;;3.50;2.08;;;;;;;12.34;93.65;101671.69;4841486;29;20095;-72
2021/12/31 05:26:40;;;;;;;7.63;2.15;;;;;;;12.30;94.01;101670.03;4842300;29;20030;-74
2021/12/31 05:29:05;;;;;;;4.70;2.10;;;;;;;12.28;94.03;101677.22;4841728;29;20391;-74
2021/12/31 05:31:30;;;;;;;7.68;2.53;;;;;;;12.24;94.22;101670.31;4841444;29;20038;-71
2021/12/31 05:33:56;;;;;;;5.43;2.10;;;;;;;12.22;94.25;101678.31;4840872;29;20057;-74
2021/12/31 05:36:21;;;;;;;4.05;2.05;;;;;;;12.22;94.47;101667.69;4841537;29;20040;-73
2021/12/31 05:38:46;;;;;;;7.07;3.08;;;;;;;12.24;94.27;101672.97;4841652;29;20479;-73
2021/12/31 05:41:12;;;;;;;4.45;2.40;;;;;;;12.20;94.45;101676.63;4842034;29;20045;-73
2021/12/31 05:43:38;;;;;;;5.70;2.38;;;;;;;12.18;94.47;101667.88;4841319;29;20030;-73
2021/12/31 05:46:03;;;;;;;5.00;2.30;;;;;;;12.18;94.61;101674.03;4841560;29;20037;-72
2021/12/31 05:48:29;;;;;;;5.03;2.30;;;;;;;12.14;94.92;101672.44;4841323;29;20517;-73
2021/12/31 05:50:55;;;;;;;4.47;2.47;;;;;;;12.11;95.04;101673.41;4841947;29;20022;-73
2021/12/31 05:53:21;;;;;;;8.63;2.78;;;;;;;12.07;95.30;101670.94;4841671;29;20037;-72
2021/12/31 05:55:46;;;;;;;4.53;2.40;;;;;;;12.10;95.14;101681.44;4841111;29;20105;-74
2021/12/31 05:58:11;;;;;;;5.35;2.20;;;;;;;12.13;94.99;101665.38;4841971;29;20467;-72
2021/12/31 06:00:37;;;;;;;7.38;2.50;;;;;;;12.16;94.53;101673.25;4841897;29;20436;-74
2021/12/31 06:03:02;;;;;;;4.35;2.40;;;;;;;12.17;94.53;101677.63;4841306;29;20115;-73
2021/12/31 06:05:28;;;;;;;5.07;2.30;;;;;;;12.15;94.26;101666.22;4840934;29;20054;-74
2021/12/31 06:07:55;;;;;;;7.55;2.55;;;;;;;12.14;94.37;101664.47;4841229;29;20029;-73
2021/12/31 06:10:22;;;;;;;6.88;2.80;;;;;;;12.05;94.63;101654.22;4841028;29;20036;-74
2021/12/31 06:12:55;;;;;;;7.25;2.40;;;;;;;11.96;94.81;101656.28;4841265;29;20041;-72
2021/12/31 06:15:20;;;;;;;3.72;2.13;;;;;;;11.88;95.33;101647.72;4829916;29;20364;-73
2021/12/31 06:17:46;;;;;;;4.38;2.42;;;;;;;11.87;95.13;101653.09;4840913;29;20037;-73
2021/12/31 06:20:12;;;;;;;5.85;2.78;;;;;;;11.85;95.52;101646.94;4840213;29;20490;-72
2021/12/31 06:22:37;;;;;;;6.85;2.72;;;;;;;11.81;95.69;101638.22;4841270;29;20038;-72
2021/12/31 06:25:03;;;;;;;7.85;2.75;;;;;;;11.83;95.44;101620.47;4841108;29;20030;-73
2021/12/31 06:27:29;;;;;;;5.32;2.47;;;;;;;11.85;95.39;101615.09;4836456;29;20034;-73
2021/12/31 06:29:54;;;;;;;3.67;2.20;;;;;;;11.86;95.30;101622.16;4835669;29;20057;-74
2021/12/31 06:32:20;;;;;;;6.53;2.45;;;;;;;11.85;95.20;101608.00;4844766;29;20147;-72
2021/12/31 06:34:45;;;;;;;5.15;2.50;;;;;;;11.88;94.94;101607.91;4843649;29;20029;-73
2021/12/31 06:37:10;;;;;;;8.35;2.50;;;;;;;11.86;94.97;101607.09;4844369;29;20026;-72
2021/12/31 06:39:36;;;;;;;8.05;2.50;;;;;;;11.87;95.06;101614.13;4844309;29;20108;-73
2021/12/31 06:42:03;;;;;;;5.80;2.40;;;;;;;11.86;95.01;101625.66;4844373;29;20117;-73
2021/12/31 06:44:29;;;;;;;7.10;2.92;;;;;;;11.86;94.93;101624.81;4844466;29;20022;-72
2021/12/31 06:46:55;;;;;;;5.68;2.70;;;;;;;11.85;94.84;101634.53;4843472;29;20034;-73
2021/12/31 06:49:20;;;;;;;3.95;2.55;;;;;;;11.84;95.04;101635.47;4843454;29;20399;-74
2021/12/31 06:51:45;;;;;;;6.07;2.60;;;;;;;11.84;95.28;101637.25;4844247;29;20041;-73
2021/12/31 06:54:10;;;;;;;7.45;2.70;;;;;;;11.83;94.49;101635.50;4841503;29;20105;-73
2021/12/31 06:56:36;;;;;;;4.63;2.22;;;;;;;11.82;94.82;101636.47;4843418;29;20036;-72
2021/12/31 06:59:01;;;;;;;6.20;2.53;;;;;;;11.82;94.69;101641.78;4834130;29;20480;-72
2021/12/31 07:01:26;;;;;;;7.25;2.60;;;;;;;11.84;94.64;101643.44;4841432;29;20102;-73
2021/12/31 07:03:52;;;;;;;4.75;2.28;;;;;;;11.82;94.88;101645.28;4843995;29;20054;-72
2021/12/31 07:06:17;;;;;;;6.68;2.60;;;;;;;11.80;94.63;101653.31;4843412;29;20503;-72
2021/12/31 07:08:42;;;;;;;5.22;2.25;;;;;;;11.80;95.05;101655.97;4836340;29;20032;-71
2021/12/31 07:11:08;;;;;;;6.07;2.45;;;;;;;11.75;95.29;101657.91;4832872;29;20026;-72
2021/12/31 07:13:35;;;;;;;5.13;2.50;;;;;;;11.78;95.05;101665.75;4825776;29;20035;-72
2021/12/31 07:16:01;;;;;;;4.50;2.33;;;;;;;11.79;94.98;101670.16;4830577;29;20416;-72
2021/12/31 07:18:26;;;;;;;4.93;2.35;;;;;;;11.79;95.03;101666.59;4840108;29;20026;-72
2021/12/31 07:20:52;;;;;;;4.57;2.42;;;;;;;11.78;94.92;101655.13;4843630;29;20112;-73
2021/12/31 07:23:20;;;;;;;6.53;2.40;;;;;;;11.80;94.78;101658.63;4843251;29;20037;-72
2021/12/31 07:25:45;;;;;;;6.18;2.40;;;;;;;11.84;94.60;101670.00;4844076;29;20115;-71
2021/12/31 07:28:12;;;;;;;6.07;2.60;;;;;;;11.85;94.25;101660.22;4843832;29;20471;-73
2021/12/31 07:30:39;;;;;;;3.60;2.30;;;;;;;11.87;94.17;101655.72;4842879;29;20062;-72
2021/12/31 07:33:05;;;;;;;6.78;2.50;;;;;;;11.89;94.17;101654.75;4843785;29;20049;-73
2021/12/31 07:35:31;;;;;;;3.83;2.55;;;;;;;11.90;94.08;101663.56;4843147;29;20105;-72
2021/12/31 07:37:58;;;;;;;3.58;2.33;;;;;;;11.90;94.00;101647.66;4841782;29;20195;-72
2021/12/31 07:40:37;;;;;;;5.03;2.40;;;;;;;11.91;93.73;101623.69;4840878;29;20022;-73
2021/12/31 07:43:05;;;;;;;5.63;2.60;;;;;;;11.95;93.52;101629.75;4836110;29;20113;-73
2021/12/31 07:45:30;;;;;;;5.00;2.30;;;;;;;11.92;93.52;101638.69;4843443;29;20030;-74
2021/12/31 07:47:55;;;;;;;8.27;2.50;;;;;;;11.91;93.58;101636.13;4842979;29;20041;-72
2021/12/31 07:50:20;;;;;;;4.43;2.40;;;;;;;11.88;93.86;101638.88;4838021;29;20033;-72
2021/12/31 07:52:46;;;;;;;6.20;2.50;;;;;;;11.85;94.05;101652.25;4842873;29;20038;-72
2021/12/31 07:55:11;;;;;;;7.35;2.72;;;;;;;11.79;94.24;101664.84;4842791;29;20034;-73
2021/12/31 07:57:37;;;;;;;6.35;2.58;;;;;;;11.79;94.37;101648.03;4842200;29;20391;-73
2021/12/31 08:00:04;;;;;;;7.78;2.63;;;;;;;11.82;94.36;101650.59;4842905;29;20463;-73
2021/12/31 08:02:29;;;;;;;5.40;2.53;;;;;;;11.80;94.19;101655.06;4843011;29;20098;-72
2021/12/31 08:04:55;;;;;;;5.30;2.58;;;;;;;11.76;94.37;101645.50;4841992;29;20026;-73
2021/12/31 08:07:20;;;;;;;9.60;2.92;;;;;;;11.75;94.37;101638.47;4841140;29;20086;-73
2021/12/31 08:09:45;;;;;;;6.35;2.70;;;;;;;11.77;94.36;101664.00;4842501;29;20099;-73
2021/12/31 08:12:10;;;;;;;5.88;2.38;;;;;;;11.78;94.53;101654.28;4843345;29;20121;-72
2021/12/31 08:14:36;;;;;;;4.78;2.40;;;;;;;11.74;94.35;101666.78;4843164;29;20486;-70
2021/12/31 08:17:01;;;;;;;8.05;2.90;;;;;;;11.70;94.77;101675.78;4842644;29;20090;-73
2021/12/31 08:19:26;;;;;;;6.35;2.72;;;;;;;11.75;94.59;101676.50;4842688;29;20086;-73
2021/12/31 08:21:52;;;;;;;6.35;2.92;;;;;;;11.73;94.77;101685.44;4842110;29;20046;-73
2021/12/31 08:24:17;;;;;;;6.40;2.80;;;;;;;11.72;94.97;101673.06;4841182;29;20113;-73
2021/12/31 08:26:42;;;;;;;4.50;2.55;;;;;;;11.75;94.51;101660.56;4842672;29;20034;-72
2021/12/31 08:29:12;;;;;;;7.68;3.00;;;;;;;11.75;94.59;101657.91;4842293;29;20037;-73
2021/12/31 08:31:37;;;;;;;8.43;3.38;;;;;;;11.75;94.55;101655.25;4841958;29;20042;-73
2021/12/31 08:34:03;;;;;;;4.53;3.13;;;;;;;11.75;94.56;101657.91;4842940;29;20090;-74
2021/12/31 08:36:28;;;;;;;7.43;2.95;;;;;;;11.75;94.64;101643.75;4842202;29;20026;-72
2021/12/31 08:38:53;;;;;;;6.15;3.28;;;;;;;11.79;94.32;101664.84;4842471;29;20034;-73
2021/12/31 08:41:19;;;;;;;6.13;2.80;;;;;;;11.79;94.54;101664.84;4838328;29;20178;-71
2021/12/31 08:43:44;;;;;;;6.05;2.53;;;;;;;11.84;93.90;101655.84;4842304;29;20030;-72
2021/12/31 08:46:09;;;;;;;6.68;2.88;;;;;;;11.85;93.80;101670.84;4842027;29;20134;-73
2021/12/31 08:48:35;;;;;;;6.13;2.90;;;;;;;11.85;94.15;101678.81;4842036;29;20493;-73
2021/12/31 08:51:00;;;;;;;7.18;3.00;;;;;;;11.82;93.94;101665.66;4840761;29;20121;-73
2021/12/31 08:53:25;;;;;;;4.97;2.67;;;;;;;11.83;94.07;101660.28;4841407;29;20030;-73
2021/12/31 08:55:50;;;;;;;6.82;2.60;;;;;;;11.84;94.09;101659.38;4842298;29;20511;-73
2021/12/31 08:58:16;;;;;;;6.53;2.75;;;;;;;11.90;93.79;101663.56;4842034;29;20042;-73
2021/12/31 09:00:42;;;;;;;5.65;2.65;;;;;;;11.92;93.40;101662.59;4841475;29;20074;-72
2021/12/31 09:03:07;;;;;;;5.72;2.58;;;;;;;11.97;93.55;101675.72;4841247;29;20495;-72
2021/12/31 09:05:33;;;;;;;5.63;2.63;;;;;;;12.01;93.47;101673.81;4841252;29;20077;-72
2021/12/31 09:07:59;;;;;;;5.30;2.50;;;;;;;12.06;92.78;101679.81;4841090;29;20025;-73
2021/12/31 09:10:24;;;;;;;7.57;2.75;;;;;;;12.10;92.84;101677.00;4842169;29;20100;-73
2021/12/31 09:12:50;;;;;;;9.65;3.30;;;;;;;12.15;92.16;101667.97;4834467;29;20039;-73
2021/12/31 09:15:16;;;;;;;5.93;2.60;;;;;;;12.16;92.23;101688.31;4838402;29;20026;-73
2021/12/31 09:17:41;;;;;;;5.85;2.47;;;;;;;12.15;91.88;101671.53;4831971;29;20049;-72
2021/12/31 09:20:07;;;;;;;10.05;3.25;;;;;;;12.12;92.20;101719.41;4837330;29;20040;-73
2021/12/31 09:22:33;;;;;;;4.90;2.70;;;;;;;12.10;92.70;101710.66;4836841;29;20034;-73
2021/12/31 09:24:58;;;;;;;4.93;2.67;;;;;;;12.07;92.31;101705.44;4840505;29;20041;-73
2021/12/31 09:27:25;;;;;;;5.88;2.45;;;;;;;12.08;92.25;101692.09;4841323;29;20030;-73
2021/12/31 09:29:50;;;;;;;6.45;2.72;;;;;;;12.04;92.48;101721.50;4841495;29;20030;-70
2021/12/31 09:32:16;;;;;;;6.82;2.72;;;;;;;12.01;92.66;101693.28;4840962;29;20041;-73
2021/12/31 09:34:43;;;;;;;7.88;3.00;;;;;;;12.03;92.56;101696.72;4839454;29;20049;-72
2021/12/31 09:37:10;;;;;;;5.15;2.63;;;;;;;12.06;92.52;101709.91;4835836;29;20066;-72
2021/12/31 09:39:35;;;;;;;6.32;2.92;;;;;;;12.05;92.69;101712.63;4837765;29;20025;-72
2021/12/31 09:42:01;;;;;;;71.60;56.55;;;;;;;12.06;92.83;101731.13;4840253;29;20030;-73
2021/12/31 09:44:26;;;;;;;6.57;3.03;;;;;;;12.10;92.85;101735.41;4840282;29;20038;-72
2021/12/31 09:46:51;;;;;;;7.00;2.95;;;;;;;12.18;92.13;101726.28;4840088;29;20026;-73
2021/12/31 09:49:17;;;;;;;6.05;2.55;;;;;;;12.23;92.28;101724.34;4841105;29;20089;-72
2021/12/31 09:51:43;;;;;;;7.53;2.75;;;;;;;12.24;92.19;101713.66;4841223;29;20037;-72
2021/12/31 09:54:11;;;;;;;6.50;2.75;;;;;;;12.29;91.58;101722.31;4839500;29;20067;-71
2021/12/31 09:56:40;;;;;;;9.75;2.90;;;;;;;12.30;91.69;101709.88;4841744;29;20174;-71
2021/12/31 09:59:06;;;;;;;6.13;2.50;;;;;;;12.35;91.41;101712.38;4841248;29;20029;-72
2021/12/31 10:01:31;;;;;;;6.30;2.97;;;;;;;12.32;91.12;101693.91;4840640;29;20396;-72
2021/12/31 10:04:00;;;;;;;8.20;2.88;;;;;;;12.26;91.87;101722.44;4844198;29;20030;-72
2021/12/31 10:06:26;;;;;;;6.93;2.92;;;;;;;12.25;91.46;101710.06;4841424;29;20061;-73
2021/12/31 10:08:56;;;;;;;6.07;3.15;;;;;;;12.22;91.98;101736.72;4843410;29;20494;-73
2021/12/31 10:11:24;;;;;;;7.32;3.03;;;;;;;12.20;92.49;101741.25;4834450;29;20038;-75
2021/12/31 10:13:58;;;;;;;6.47;2.75;;;;;;;12.19;92.58;101736.84;4844680;29;20565;-73
2021/12/31 10:16:28;;;;;;;5.93;2.75;;;;;;;12.12;92.81;101730.91;4844034;29;20057;-73
2021/12/31 10:19:07;;;;;;;6.20;2.83;;;;;;;12.11;92.48;101734.47;4844571;29;20094;-73
2021/12/31 10:21:50;;;;;;;8.65;3.08;;;;;;;12.08;93.06;101705.38;4838773;29;20038;-71
2021/12/31 10:24:32;;;;;;;7.32;3.10;;;;;;;12.11;92.39;101691.13;4844095;29;20034;-73
2021/12/31 10:27:01;;;;;;;7.28;3.33;;;;;;;12.15;92.47;101686.56;4844365;29;20046;-73
2021/12/31 10:29:26;;;;;;;6.03;3.10;;;;;;;12.20;92.06;101645.66;4844514;29;20038;-73
2021/12/31 10:31:53;;;;;;;12.23;3.22;;;;;;;12.20;91.94;101616.44;4843350;29;20394;-74
2021/12/31 10:34:37;;;;;;;7.05;3.00;;;;;;;12.29;91.74;101620.53;4844479;29;20046;-72
2021/12/31 10:37:14;;;;;;;4.75;2.97;;;;;;;12.34;91.36;101631.84;4844274;29;20054;-74
2021/12/31 10:39:40;;;;;;;8.02;2.88;;;;;;;12.52;91.26;101646.16;4843834;29;20119;-71
2021/12/31 10:42:09;;;;;;;4.90;2.70;;;;;;;13.31;87.13;101671.28;4844196;29;20127;-73
2021/12/31 10:44:40;;;;;;;7.32;2.92;;;;;;;13.52;86.02;101654.44;4838285;29;20091;-72
2021/12/31 10:47:11;;;;;;;9.07;3.08;;;;;;;14.14;83.50;101675.59;4839697;29;20406;-72
2021/12/31 10:50:11;;;;;;;7.70;3.20;;;;;;;15.05;78.51;101681.94;4837850;29;20054;-72
2021/12/31 10:52:46;;;;;;;9.60;2.67;;;;;;;14.72;78.77;101656.00;4842000;29;20065;-72
2021/12/31 10:55:18;;;;;;;8.27;2.90;;;;;;;14.32;81.41;101681.88;4843248;29;20121;-71
2021/12/31 10:57:48;;;;;;;6.22;2.67;;;;;;;14.03;82.26;101670.78;4843518;29;20030;-72
2021/12/31 11:00:16;;;;;;;6.68;2.80;;;;;;;13.72;83.51;101684.59;4843526;29;20033;-72
2021/12/31 11:02:42;;;;;;;8.32;2.90;;;;;;;13.51;84.67;101683.78;4843506;29;20030;-71
2021/12/31 11:05:10;;;;;;;6.80;2.80;;;;;;;13.25;86.10;101689.25;4843272;29;20041;-71
2021/12/31 11:07:37;;;;;;;7.28;2.85;;;;;;;13.13;86.37;101689.75;4830674;29;20083;-72
2021/12/31 11:10:04;;;;;;;12.88;3.25;;;;;;;13.08;86.80;101692.63;4825699;29;20048;-71
2021/12/31 11:12:30;;;;;;;6.93;2.97;;;;;;;12.99;87.79;101692.97;4832748;29;20038;-72
2021/12/31 11:14:56;;;;;;;8.63;2.95;;;;;;;12.86;88.66;101682.00;4842622;29;20120;-72
2021/12/31 11:17:22;;;;;;;9.98;3.40;;;;;;;12.70;89.42;101702.13;4843296;29;20129;-71
2021/12/31 11:19:49;;;;;;;9.48;3.17;;;;;;;12.65;89.52;101698.81;4843322;29;20045;-72
2021/12/31 11:22:17;;;;;;;9.77;3.65;;;;;;;12.58;89.92;101690.22;4843369;29;20128;-72
2021/12/31 11:24:44;;;;;;;8.60;3.60;;;;;;;12.52;90.27;101711.69;4838555;29;20038;-71